createdAt,value
2019-05-26T00:02:21.271Z,15.65
2019-05-26T00:05:11.148Z,15.60
2019-05-26T00:08:00.639Z,15.57
2019-05-26T00:10:50.497Z,15.53
2019-05-26T00:13:42.233Z,15.47
2019-05-26T00:16:31.436Z,15.45
2019-05-26T00:19:20.412Z,15.41
2019-05-26T00:22:09.521Z,15.38
2019-05-26T00:24:58.972Z,15.34
2019-05-26T00:27:47.528Z,15.31
2019-05-26T00:30:35.796Z,15.27
2019-05-26T00:33:25.308Z,15.25
2019-05-26T00:36:14.212Z,15.21
2019-05-26T00:39:03.572Z,15.18
2019-05-26T00:41:52.527Z,15.14
2019-05-26T00:44:41.667Z,15.11
2019-05-26T00:47:30.595Z,15.08
2019-05-26T00:50:21.592Z,15.04
2019-05-26T00:53:09.781Z,15.00
2019-05-26T00:55:59.195Z,14.98
2019-05-26T00:58:48.656Z,14.95
2019-05-26T01:04:23.760Z,14.88
2019-05-26T01:07:22.067Z,14.87
2019-05-26T01:10:13.261Z,14.84
2019-05-26T01:13:03.205Z,14.81
2019-05-26T01:15:55.567Z,14.78
2019-05-26T01:18:45.810Z,14.75
2019-05-26T01:21:36.228Z,14.74
2019-05-26T01:24:27.181Z,14.71
2019-05-26T01:27:20.801Z,14.70
2019-05-26T01:30:10.926Z,14.68
2019-05-26T01:33:05.579Z,14.65
2019-05-26T01:35:54.965Z,14.63
2019-05-26T01:38:44.874Z,14.61
2019-05-26T01:41:37.946Z,14.58
2019-05-26T01:44:27.923Z,14.57
2019-05-26T01:47:18.756Z,14.54
2019-05-26T01:50:07.608Z,14.53
2019-05-26T01:53:02.910Z,14.52
2019-05-26T01:56:10.148Z,14.49
2019-05-26T01:59:04.097Z,14.47
2019-05-26T02:01:58.794Z,14.46
2019-05-26T02:04:54.065Z,14.45
2019-05-26T02:07:44.617Z,14.42
2019-05-26T02:10:35.615Z,14.40
2019-05-26T02:13:24.851Z,14.41
2019-05-26T02:16:16.634Z,14.39
2019-05-26T02:19:06.652Z,14.37
2019-05-26T02:22:00.205Z,14.36
2019-05-26T02:24:54.169Z,14.35
2019-05-26T02:27:49.040Z,14.33
2019-05-26T02:30:42.587Z,14.33
2019-05-26T02:33:31.850Z,14.32
2019-05-26T02:36:23.978Z,14.31
2019-05-26T02:39:13.401Z,14.32
2019-05-26T02:42:04.225Z,14.31
2019-05-26T02:44:53.432Z,14.32
2019-05-26T02:47:42.665Z,14.32
2019-05-26T02:50:32.888Z,14.32
2019-05-26T02:53:25.376Z,14.32
2019-05-26T02:56:17.030Z,14.34
2019-05-26T02:59:13.616Z,14.34
2019-05-26T03:02:06.554Z,14.36
2019-05-26T03:05:06.559Z,14.36
2019-05-26T03:07:57.450Z,14.38
2019-05-26T03:10:49.492Z,14.37
2019-05-26T03:13:40.091Z,14.38
2019-05-26T03:16:32.360Z,14.40
2019-05-26T03:19:23.885Z,14.41
2019-05-26T03:22:13.567Z,14.42
2019-05-26T03:25:03.083Z,14.43
2019-05-26T03:27:55.273Z,14.46
2019-05-26T03:30:45.317Z,14.45
2019-05-26T03:33:36.119Z,14.46
2019-05-26T03:36:28.769Z,14.49
2019-05-26T03:39:18.107Z,14.48
2019-05-26T03:42:16.683Z,14.49
2019-05-26T03:45:07.910Z,14.50
2019-05-26T03:47:58.829Z,14.53
2019-05-26T03:50:48.502Z,14.54
2019-05-26T03:53:39.850Z,14.55
2019-05-26T03:56:30.680Z,14.56
2019-05-26T03:59:21.290Z,14.57
2019-05-26T04:02:11.310Z,14.59
2019-05-26T04:05:03.152Z,14.60
2019-05-26T04:07:52.527Z,14.62
2019-05-26T04:10:51.694Z,14.63
2019-05-26T04:13:40.552Z,14.65
2019-05-26T04:16:32.121Z,14.67
2019-05-26T04:19:21.088Z,14.69
2019-05-26T04:22:12.548Z,14.69
2019-05-26T04:25:02.436Z,14.71
2019-05-26T04:27:53.383Z,14.72
2019-05-26T04:30:45.408Z,14.74
2019-05-26T04:33:39.349Z,14.76
2019-05-26T04:36:31.125Z,14.77
2019-05-26T04:39:21.404Z,14.79
2019-05-26T04:42:10.336Z,14.80
2019-05-26T04:45:00.332Z,14.81
2019-05-26T04:47:49.581Z,14.84
2019-05-26T04:50:41.977Z,14.86
2019-05-26T04:53:31.185Z,14.86
2019-05-26T04:56:20.791Z,14.89
2019-05-26T04:59:09.718Z,14.90
2019-05-26T05:02:01.932Z,14.93
2019-05-26T05:04:53.011Z,14.96
2019-05-26T05:07:42.168Z,14.97
2019-05-26T05:10:41.788Z,14.99
2019-05-26T05:13:30.874Z,15.02
2019-05-26T05:16:21.086Z,15.05
2019-05-26T05:19:12.962Z,15.08
2019-05-26T05:22:02.001Z,15.12
2019-05-26T05:24:51.301Z,15.15
2019-05-26T05:27:42.057Z,15.18
2019-05-26T05:30:32.809Z,15.22
2019-05-26T05:33:21.892Z,15.24
2019-05-26T05:36:12.886Z,15.27
2019-05-26T05:39:02.023Z,15.30
2019-05-26T05:41:52.263Z,15.32
2019-05-26T05:44:47.486Z,15.34
2019-05-26T05:47:42.701Z,15.38
2019-05-26T05:50:39.305Z,15.42
2019-05-26T05:53:30.773Z,15.46
2019-05-26T05:56:27.860Z,15.51
2019-05-26T05:59:23.691Z,15.56
2019-05-26T06:02:15.574Z,15.63
2019-05-26T06:05:10.617Z,15.70
2019-05-26T06:08:01.655Z,15.83
2019-05-26T06:10:52.046Z,15.96
2019-05-26T06:13:42.335Z,16.07
2019-05-26T06:16:32.220Z,16.16
2019-05-26T06:19:23.184Z,16.26
2019-05-26T08:03:49.640Z,19.08
2019-05-26T08:06:44.564Z,19.16
2019-05-26T08:09:38.179Z,19.23
2019-05-26T08:18:33.585Z,19.45
2019-05-26T08:21:24.104Z,19.52
2019-05-26T10:32:43.632Z,23.28
2019-05-26T10:35:36.010Z,23.35
2019-05-26T13:51:23.597Z,26.70
2019-05-26T14:13:05.950Z,26.88
2019-05-26T16:28:34.759Z,24.89
2019-05-26T16:31:24.587Z,24.83
2019-05-26T16:34:13.775Z,24.76
2019-05-26T16:37:03.383Z,24.75
2019-05-26T16:39:52.034Z,24.70
2019-05-26T16:42:43.171Z,24.64
2019-05-26T16:45:37.001Z,24.61
2019-05-26T16:48:26.744Z,24.55
2019-05-26T16:51:16.862Z,24.48
2019-05-26T16:54:06.173Z,24.43
2019-05-26T16:56:57.435Z,24.40
2019-05-26T16:59:46.152Z,24.33
2019-05-26T17:02:34.874Z,24.26
2019-05-26T17:05:26.894Z,24.23
2019-05-26T17:08:16.716Z,24.16
2019-05-26T17:11:05.539Z,24.10
2019-05-26T17:13:55.926Z,24.03
2019-05-26T17:16:44.598Z,23.97
2019-05-26T17:19:32.882Z,23.90
2019-05-26T17:22:22.292Z,23.82
2019-05-26T17:25:12.360Z,23.77
2019-05-26T17:45:49.448Z,23.38
2019-05-26T17:48:38.383Z,23.30
2019-05-26T17:51:29.934Z,23.23
2019-05-26T17:54:20.317Z,23.14
2019-05-26T17:57:09.009Z,23.06
2019-05-26T17:59:57.626Z,22.99
2019-05-26T18:02:46.677Z,22.92
2019-05-26T18:08:24.053Z,22.74
2019-05-26T18:11:15.032Z,22.69
2019-05-26T18:14:04.628Z,22.63
2019-05-26T18:16:53.989Z,22.55
2019-05-26T18:19:43.329Z,22.49
2019-05-26T18:22:32.182Z,22.44
2019-05-26T18:25:24.829Z,22.35
2019-05-26T18:28:14.131Z,22.29
2019-05-26T18:31:04.729Z,22.22
2019-05-26T18:33:53.052Z,22.16
2019-05-26T18:36:44.184Z,22.12
2019-05-26T18:39:33.050Z,22.08
2019-05-26T18:42:23.602Z,22.00
2019-05-26T18:45:13.530Z,21.94
2019-05-26T18:48:03.813Z,21.84
2019-05-26T18:50:54.328Z,21.78
2019-05-26T18:53:45.732Z,21.74
2019-05-26T18:56:37.869Z,21.67
2019-05-26T18:59:28.010Z,21.61
2019-05-26T19:02:20.205Z,21.49
2019-05-26T19:05:12.804Z,21.42
2019-05-26T19:08:02.099Z,21.34
2019-05-26T19:10:52.223Z,21.27
2019-05-26T19:13:41.457Z,21.18
2019-05-26T19:16:30.825Z,21.09
2019-05-26T19:19:22.374Z,21.00
2019-05-26T19:22:14.024Z,20.95
2019-05-26T19:25:02.213Z,20.89
2019-05-26T19:27:51.599Z,20.80
2019-05-26T19:30:45.492Z,20.72
2019-05-26T19:33:32.534Z,20.63
2019-05-26T19:36:21.362Z,20.56
2019-05-26T19:39:11.056Z,20.49
2019-05-26T19:41:59.992Z,20.43
2019-05-26T19:44:49.113Z,20.36
2019-05-26T19:47:38.221Z,20.30
2019-05-26T19:50:28.247Z,20.25
2019-05-26T19:53:17.625Z,20.15
2019-05-26T19:56:07.300Z,20.06
2019-05-26T19:58:55.798Z,19.95
2019-05-26T20:01:44.807Z,19.89
2019-05-26T20:04:35.054Z,19.81
2019-05-26T20:07:24.141Z,19.72
2019-05-26T20:10:12.729Z,19.65
2019-05-26T20:13:01.698Z,19.58
2019-05-26T20:15:50.016Z,19.51
2019-05-26T20:18:41.363Z,19.44
2019-05-26T20:21:30.708Z,19.41
2019-05-26T20:24:21.208Z,19.33
2019-05-26T20:27:10.403Z,19.27
2019-05-26T20:29:58.972Z,19.23
2019-05-26T20:32:49.691Z,19.16
2019-05-26T20:35:38.643Z,19.11
2019-05-26T20:38:27.287Z,19.06
2019-05-26T20:41:15.929Z,18.99
2019-05-26T20:44:04.009Z,18.94
2019-05-26T20:46:55.406Z,18.89
2019-05-26T20:49:45.962Z,18.85
2019-05-26T20:52:42.126Z,18.80
2019-05-26T20:55:31.052Z,18.75
2019-05-26T20:58:21.259Z,18.71
2019-05-26T21:01:10.009Z,18.67
2019-05-26T21:04:01.043Z,18.64
2019-05-26T21:06:58.708Z,18.59
2019-05-26T21:09:49.307Z,18.56
2019-05-26T21:12:38.568Z,18.53
2019-05-26T21:15:29.457Z,18.48
2019-05-26T21:18:17.629Z,18.44
2019-05-26T21:21:08.503Z,18.41
2019-05-26T21:23:58.695Z,18.39
2019-05-26T21:26:48.777Z,18.34
2019-05-26T21:29:39.333Z,18.28
2019-05-26T21:32:31.355Z,18.26
2019-05-26T21:35:20.280Z,18.23
2019-05-26T21:38:10.898Z,18.19
2019-05-26T21:41:02.347Z,18.17
2019-05-26T21:43:52.324Z,18.14
2019-05-26T21:46:43.505Z,18.10
2019-05-26T21:49:35.006Z,18.09
2019-05-26T21:52:23.797Z,18.05
2019-05-26T21:55:14.872Z,18.03
2019-05-26T21:58:04.810Z,17.99
2019-05-26T22:00:55.428Z,17.96
2019-05-26T22:03:45.404Z,17.93
2019-05-26T22:06:39.523Z,17.91
2019-05-26T22:09:28.977Z,17.88
2019-05-26T22:12:18.647Z,17.87
2019-05-26T22:15:07.720Z,17.84
2019-05-26T22:17:57.981Z,17.83
2019-05-26T22:20:49.540Z,17.80
2019-05-26T22:23:42.182Z,17.78
2019-05-26T22:26:32.618Z,17.76
2019-05-26T22:29:29.014Z,17.73
2019-05-26T22:32:25.376Z,17.70
2019-05-26T22:35:15.065Z,17.68
2019-05-26T22:38:04.228Z,17.65
2019-05-26T22:40:52.588Z,17.64
2019-05-26T22:43:41.973Z,17.60
2019-05-26T22:46:30.733Z,17.57
2019-05-26T22:49:23.968Z,17.55
2019-05-26T22:52:17.889Z,17.52
2019-05-26T22:55:07.370Z,17.51
2019-05-26T22:57:57.197Z,17.49
2019-05-26T23:00:49.107Z,17.47
2019-05-26T23:03:40.515Z,17.45
2019-05-26T23:06:33.771Z,17.42
2019-05-26T23:09:26.126Z,17.41
2019-05-26T23:12:24.453Z,17.38
2019-05-26T23:15:19.276Z,17.35
2019-05-26T23:18:08.168Z,17.33
2019-05-26T23:20:58.577Z,17.31
2019-05-26T23:23:47.457Z,17.31
2019-05-26T23:26:36.289Z,17.28
2019-05-26T23:29:28.060Z,17.26
2019-05-26T23:32:19.023Z,17.22
2019-05-26T23:35:09.196Z,17.20
2019-05-26T23:38:00.356Z,17.18
2019-05-26T23:40:50.972Z,17.16
2019-05-26T23:43:42.692Z,17.14
2019-05-26T23:46:34.591Z,17.12
2019-05-26T23:49:34.032Z,17.09
2019-05-26T23:52:22.973Z,17.08
2019-05-26T23:55:23.288Z,17.06
2019-05-26T23:58:13.495Z,17.04
